createdAt,value
2022-10-17T00:01:17.890Z,4.40
2022-10-17T00:03:45.500Z,4.27
2022-10-17T00:06:14.133Z,4.70
2022-10-17T00:08:42.313Z,4.47
2022-10-17T00:11:15.103Z,5.63
2022-10-17T00:13:42.977Z,4.77
2022-10-17T00:16:12.040Z,4.37
2022-10-17T00:18:39.705Z,4.13
2022-10-17T00:21:07.312Z,4.83
2022-10-17T00:23:34.981Z,4.37
2022-10-17T00:26:02.918Z,5.17
2022-10-17T00:28:30.573Z,4.77
2022-10-17T00:30:58.920Z,4.73
2022-10-17T00:33:28.262Z,4.67
2022-10-17T00:36:04.306Z,5.20
2022-10-17T00:38:31.969Z,5.10
2022-10-17T00:40:59.765Z,4.70
2022-10-17T00:43:27.599Z,4.20
2022-10-17T00:45:55.209Z,4.30
2022-10-17T00:48:23.401Z,4.17
2022-10-17T00:50:52.752Z,4.50
2022-10-17T00:53:20.533Z,4.60
2022-10-17T00:55:49.735Z,4.57
2022-10-17T00:58:17.490Z,4.57
2022-10-17T01:00:45.421Z,4.47
2022-10-17T01:03:13.050Z,4.10
2022-10-17T01:05:40.961Z,4.00
2022-10-17T01:08:09.988Z,3.70
2022-10-17T01:10:44.541Z,4.20
2022-10-17T01:13:14.117Z,4.43
2022-10-17T01:15:48.551Z,3.63
2022-10-17T01:18:24.966Z,4.23
2022-10-17T01:21:08.587Z,3.90
2022-10-17T01:24:04.348Z,4.30
2022-10-17T01:26:39.675Z,4.50
2022-10-17T01:29:23.602Z,4.03
2022-10-17T01:31:53.737Z,4.53
2022-10-17T01:34:23.382Z,4.20
2022-10-17T01:36:57.970Z,4.10
2022-10-17T01:39:30.085Z,4.43
2022-10-17T01:41:59.047Z,4.60
2022-10-17T01:44:29.599Z,4.10
2022-10-17T01:47:00.534Z,4.57
2022-10-17T01:49:28.551Z,4.33
2022-10-17T01:51:58.136Z,4.00
2022-10-17T01:54:26.707Z,4.20
2022-10-17T01:56:58.569Z,4.13
2022-10-17T01:59:27.782Z,3.90
2022-10-17T02:01:55.458Z,4.27
2022-10-17T02:04:24.388Z,4.00
2022-10-17T02:06:52.082Z,4.10
2022-10-17T02:09:21.667Z,3.77
2022-10-17T02:11:54.071Z,3.93
2022-10-17T02:14:26.303Z,4.17
2022-10-17T02:16:56.956Z,3.77
2022-10-17T02:19:35.668Z,4.13
2022-10-17T02:22:08.334Z,4.50
2022-10-17T02:24:40.689Z,3.77
2022-10-17T02:27:11.087Z,4.20
2022-10-17T02:29:40.446Z,4.03
2022-10-17T02:32:09.167Z,3.63
2022-10-17T02:34:39.614Z,4.13
2022-10-17T02:37:07.660Z,4.13
2022-10-17T02:39:35.321Z,4.20
2022-10-17T02:42:04.195Z,3.83
2022-10-17T02:44:31.919Z,4.17
2022-10-17T02:47:02.802Z,4.10
2022-10-17T02:49:31.383Z,3.93
2022-10-17T02:52:02.236Z,3.90
2022-10-17T02:54:33.026Z,4.07
2022-10-17T02:57:03.439Z,3.67
2022-10-17T02:59:31.152Z,4.10
2022-10-17T03:01:58.733Z,3.60
2022-10-17T03:04:26.370Z,4.40
2022-10-17T03:06:53.962Z,3.73
2022-10-17T03:09:22.919Z,3.63
2022-10-17T03:11:50.940Z,3.90
2022-10-17T03:14:18.841Z,3.60
2022-10-17T03:16:46.424Z,3.90
2022-10-17T03:19:14.083Z,4.30
2022-10-17T03:21:41.654Z,4.40
2022-10-17T03:24:09.276Z,4.07
2022-10-17T03:26:38.306Z,3.87
2022-10-17T03:29:06.120Z,3.50
2022-10-17T03:31:33.780Z,4.00
2022-10-17T03:34:02.927Z,4.03
2022-10-17T03:36:30.544Z,4.20
2022-10-17T03:38:58.263Z,4.30
2022-10-17T03:41:25.913Z,4.00
2022-10-17T03:43:55.228Z,4.00
2022-10-17T03:46:22.824Z,3.90
2022-10-17T03:48:50.636Z,3.73
2022-10-17T03:51:18.369Z,3.80
2022-10-17T03:53:46.324Z,4.00
2022-10-17T03:56:14.771Z,4.00
2022-10-17T03:58:42.449Z,3.77
2022-10-17T04:01:12.847Z,3.43
2022-10-17T04:03:41.604Z,3.80
2022-10-17T04:06:09.206Z,3.73
2022-10-17T04:08:36.949Z,3.90
2022-10-17T04:11:05.445Z,4.30
2022-10-17T04:13:33.350Z,3.70
2022-10-17T04:16:02.624Z,3.87
2022-10-17T04:18:31.680Z,3.87
2022-10-17T04:20:59.365Z,3.70
2022-10-17T04:23:27.394Z,4.17
2022-10-17T04:25:57.107Z,4.23
2022-10-17T04:28:24.850Z,3.80
2022-10-17T04:30:57.617Z,3.80
2022-10-17T04:33:25.334Z,3.83
2022-10-17T04:36:01.139Z,3.60
2022-10-17T04:38:28.996Z,3.80
2022-10-17T04:40:58.322Z,4.30
2022-10-17T04:43:26.351Z,3.57
2022-10-17T04:45:54.004Z,4.30
2022-10-17T04:48:23.818Z,3.93
2022-10-17T04:50:56.057Z,4.00
2022-10-17T04:53:28.134Z,4.20
2022-10-17T04:55:56.777Z,3.83
2022-10-17T04:58:26.337Z,3.87
2022-10-17T05:00:55.021Z,4.23
2022-10-17T05:03:24.109Z,3.93
2022-10-17T05:05:54.816Z,10.90
2022-10-17T05:08:23.615Z,4.87
2022-10-17T05:10:54.026Z,3.93
2022-10-17T05:16:07.329Z,4.13
2022-10-17T05:18:35.062Z,3.73
2022-10-17T05:21:04.489Z,4.13
2022-10-17T05:23:32.760Z,4.60
2022-10-17T05:26:02.807Z,4.00
2022-10-17T05:28:30.530Z,4.07
2022-10-17T05:31:01.303Z,4.20
2022-10-17T05:33:33.762Z,4.27
2022-10-17T05:36:02.569Z,4.07
2022-10-17T05:38:30.411Z,4.53
2022-10-17T05:41:00.492Z,3.80
2022-10-17T05:43:33.104Z,3.90
2022-10-17T05:46:08.742Z,3.97
2022-10-17T05:48:36.945Z,3.93
2022-10-17T05:51:05.890Z,4.10
2022-10-17T05:53:33.823Z,4.13
2022-10-17T05:56:02.614Z,4.20
2022-10-17T05:58:49.233Z,4.17
2022-10-17T06:01:19.726Z,3.80
2022-10-17T06:03:47.368Z,3.57
2022-10-17T06:06:23.710Z,3.77
2022-10-17T06:08:51.448Z,3.70
2022-10-17T06:11:19.307Z,5.70
2022-10-17T06:13:47.020Z,4.20
2022-10-17T06:16:14.686Z,3.90
2022-10-17T06:18:44.992Z,4.00
2022-10-17T06:21:13.000Z,4.20
2022-10-17T06:23:40.963Z,3.57
2022-10-17T06:26:08.698Z,4.27
2022-10-17T06:28:36.787Z,3.97
2022-10-17T06:31:07.966Z,4.50
2022-10-17T06:33:36.130Z,3.77
2022-10-17T06:36:05.727Z,3.80
2022-10-17T06:38:33.804Z,4.03
2022-10-17T06:43:54.044Z,3.60
2022-10-17T06:46:21.707Z,3.80
2022-10-17T06:48:49.576Z,4.10
2022-10-17T06:51:21.433Z,4.17
2022-10-17T06:54:04.266Z,3.87
2022-10-17T06:56:33.110Z,4.40
2022-10-17T06:59:01.247Z,4.20
2022-10-17T07:01:31.634Z,3.87
2022-10-17T07:03:59.616Z,3.53
2022-10-17T07:06:28.669Z,3.77
2022-10-17T07:08:57.252Z,3.97
2022-10-17T07:11:25.976Z,4.40
2022-10-17T07:13:56.724Z,4.73
2022-10-17T07:16:28.798Z,4.70
2022-10-17T07:19:03.190Z,4.13
2022-10-17T07:21:36.608Z,4.22
2022-10-17T07:24:07.632Z,3.55
2022-10-17T07:26:35.439Z,4.35
2022-10-17T07:29:03.380Z,3.75
2022-10-17T07:31:31.143Z,5.07
2022-10-17T07:34:45.045Z,6.72
2022-10-17T07:41:04.468Z,3.58
2022-10-17T07:44:42.584Z,3.83
2022-10-17T07:50:33.132Z,3.58
2022-10-17T07:53:46.451Z,3.88
2022-10-17T07:56:11.061Z,3.40
2022-10-17T07:58:39.898Z,3.33
2022-10-17T08:01:13.755Z,3.35
2022-10-17T08:04:10.064Z,3.30
2022-10-17T08:06:45.309Z,3.30
2022-10-17T08:09:26.678Z,3.28
2022-10-17T08:15:25.716Z,2.95
2022-10-17T08:17:56.013Z,3.10
2022-10-17T08:20:35.120Z,3.20
2022-10-17T08:23:02.972Z,3.42
2022-10-17T08:25:32.642Z,2.97
2022-10-17T08:28:00.450Z,3.10
2022-10-17T08:30:30.747Z,2.97
2022-10-17T08:33:01.119Z,2.97
2022-10-17T08:35:49.331Z,3.00
2022-10-17T08:38:43.167Z,3.05
2022-10-17T08:41:31.708Z,3.60
2022-10-17T08:44:16.320Z,2.83
2022-10-17T08:46:45.450Z,3.20
2022-10-17T08:49:16.082Z,5.13
2022-10-17T08:51:57.857Z,2.80
2022-10-17T08:54:53.865Z,3.58
2022-10-17T08:57:23.145Z,3.05
2022-10-17T09:00:18.597Z,3.10
2022-10-17T09:07:35.328Z,2.70
2022-10-17T09:09:48.274Z,3.05
2022-10-17T09:12:45.010Z,3.22
2022-10-17T09:15:30.455Z,3.15
2022-10-17T09:18:10.466Z,3.28
2022-10-17T09:21:29.606Z,3.30
2022-10-17T09:24:08.866Z,3.20
2022-10-17T09:26:38.100Z,2.80
2022-10-17T09:29:25.037Z,2.78
2022-10-17T09:34:33.413Z,2.95
2022-10-17T09:37:02.789Z,2.85
2022-10-17T09:39:32.960Z,2.75
2022-10-17T09:42:06.619Z,2.63
2022-10-17T09:44:36.833Z,3.38
2022-10-17T09:47:21.438Z,2.75
2022-10-17T09:49:58.021Z,2.72
2022-10-17T09:52:31.032Z,2.78
2022-10-17T09:55:01.247Z,3.03
2022-10-17T09:57:29.542Z,3.03
2022-10-17T10:00:00.848Z,3.15
2022-10-17T10:02:32.890Z,3.40
2022-10-17T10:05:05.940Z,3.33
2022-10-17T10:07:38.126Z,2.80
2022-10-17T10:10:07.542Z,3.10
2022-10-17T10:12:36.542Z,3.40
2022-10-17T10:15:34.467Z,3.00
2022-10-17T10:18:32.154Z,3.20
2022-10-17T10:21:11.426Z,4.80
2022-10-17T10:23:42.879Z,3.10
2022-10-17T10:26:31.351Z,3.35
2022-10-17T10:29:01.191Z,3.80
2022-10-17T10:31:35.721Z,3.28
2022-10-17T10:34:14.433Z,3.47
2022-10-17T10:36:46.932Z,3.63
2022-10-17T10:39:32.237Z,3.60
2022-10-17T10:42:00.333Z,3.50
2022-10-17T10:44:31.180Z,3.47
2022-10-17T10:47:26.159Z,3.65
2022-10-17T10:49:55.233Z,3.33
2022-10-17T10:52:32.870Z,3.28
2022-10-17T10:55:17.174Z,3.03
2022-10-17T11:35:10.254Z,3.50
2022-10-17T11:45:29.339Z,3.65
2022-10-17T11:49:14.031Z,3.30
2022-10-17T12:38:32.757Z,3.35
2022-10-17T12:41:05.396Z,3.83
2022-10-17T12:43:57.058Z,3.50
2022-10-17T12:46:47.968Z,4.28
2022-10-17T12:49:40.279Z,3.47
2022-10-17T12:52:31.361Z,3.60
2022-10-17T12:55:12.587Z,3.75
2022-10-17T12:57:49.824Z,3.92
2022-10-17T13:00:23.408Z,3.42
2022-10-17T13:02:52.573Z,3.67
2022-10-17T13:05:29.123Z,4.22
2022-10-17T13:07:57.176Z,3.80
2022-10-17T13:10:28.689Z,4.88
2022-10-17T13:13:02.774Z,3.95
2022-10-17T13:15:32.534Z,3.70
2022-10-17T13:18:04.512Z,3.97
2022-10-17T13:20:32.474Z,3.88
2022-10-17T13:23:00.379Z,3.83
2022-10-17T13:25:29.613Z,4.57
2022-10-17T13:28:08.701Z,3.63
2022-10-17T13:30:37.089Z,3.65
2022-10-17T13:33:05.160Z,4.32
2022-10-17T13:38:28.791Z,4.45
2022-10-17T13:41:10.734Z,4.53
2022-10-17T13:43:44.516Z,4.70
2022-10-17T13:48:48.665Z,4.40
2022-10-17T13:51:16.415Z,4.30
2022-10-17T13:53:44.842Z,4.22
2022-10-17T13:56:28.374Z,4.25
2022-10-17T13:58:58.413Z,4.32
2022-10-17T14:01:27.048Z,4.55
2022-10-17T14:04:07.815Z,4.50
2022-10-17T14:06:37.065Z,4.07
2022-10-17T14:09:06.658Z,4.32
2022-10-17T14:11:37.192Z,4.82
2022-10-17T14:14:05.642Z,4.95
2022-10-17T14:25:14.160Z,4.40
2022-10-17T14:28:11.124Z,4.20
2022-10-17T14:31:10.198Z,4.07
2022-10-17T14:33:50.519Z,3.97
2022-10-17T14:52:52.042Z,4.00
2022-10-17T15:02:33.618Z,4.32
2022-10-17T15:09:29.717Z,5.20
2022-10-17T15:12:17.435Z,5.10
2022-10-17T15:25:44.503Z,4.30
2022-10-17T15:28:13.289Z,4.80
2022-10-17T15:30:41.262Z,4.40
2022-10-17T15:33:09.402Z,5.40
2022-10-17T15:35:37.646Z,5.07
2022-10-17T15:38:06.992Z,4.85
2022-10-17T15:40:35.335Z,4.65
2022-10-17T15:43:04.712Z,4.50
2022-10-17T15:45:32.496Z,4.07
2022-10-17T15:48:02.374Z,4.47
2022-10-17T15:50:31.165Z,4.55
2022-10-17T15:52:59.392Z,4.47
2022-10-17T15:55:27.361Z,5.13
2022-10-17T15:57:55.096Z,4.50
2022-10-17T16:00:25.028Z,5.38
2022-10-17T16:02:52.857Z,5.75
2022-10-17T16:05:23.241Z,7.25
2022-10-17T16:07:51.146Z,7.40
2022-10-17T16:10:20.377Z,9.00
2022-10-17T16:12:49.825Z,7.80
2022-10-17T16:15:18.289Z,6.75
2022-10-17T16:18:07.383Z,6.22
2022-10-17T16:20:36.509Z,5.22
2022-10-17T16:23:04.821Z,5.47
2022-10-17T16:25:32.986Z,5.68
2022-10-17T16:28:01.233Z,6.25
2022-10-17T16:30:29.769Z,4.18
2022-10-17T16:32:58.868Z,5.63
2022-10-17T16:35:31.689Z,4.93
2022-10-17T16:38:02.695Z,4.90
2022-10-17T16:40:30.429Z,5.57
2022-10-17T16:42:58.888Z,5.30
2022-10-17T16:45:26.560Z,5.80
2022-10-17T16:47:54.227Z,5.50
2022-10-17T16:50:23.272Z,5.30
2022-10-17T16:52:51.062Z,4.90
2022-10-17T16:55:19.757Z,5.30
2022-10-17T16:57:49.279Z,5.80
2022-10-17T17:00:17.974Z,5.60
2022-10-17T17:02:45.652Z,5.70
2022-10-17T17:05:15.346Z,6.30
2022-10-17T17:07:44.674Z,6.05
2022-10-17T17:10:12.474Z,7.27
2022-10-17T17:12:40.467Z,6.60
2022-10-17T17:15:09.629Z,6.10
2022-10-17T17:17:50.229Z,6.03
2022-10-17T17:20:22.567Z,6.53
2022-10-17T17:23:02.350Z,6.50
2022-10-17T17:25:30.478Z,6.87
2022-10-17T17:27:58.554Z,6.90
2022-10-17T17:30:26.600Z,6.20
2022-10-17T17:32:56.133Z,6.07
2022-10-17T17:35:25.632Z,5.93
2022-10-17T17:38:08.186Z,5.90
2022-10-17T17:44:40.263Z,6.33
2022-10-17T17:47:43.462Z,7.17
2022-10-17T17:50:12.471Z,6.83
2022-10-17T17:52:42.135Z,6.40
2022-10-17T17:55:11.090Z,7.20
2022-10-17T17:57:38.832Z,7.70
2022-10-17T18:00:07.885Z,7.77
2022-10-17T18:02:39.629Z,6.87
2022-10-17T18:05:11.259Z,6.17
2022-10-17T18:07:39.164Z,6.73
2022-10-17T18:10:08.187Z,6.43
2022-10-17T18:12:36.008Z,6.57
2022-10-17T18:15:03.861Z,6.50
2022-10-17T18:17:31.726Z,6.63
2022-10-17T18:20:00.753Z,6.47
2022-10-17T18:22:28.876Z,6.00
2022-10-17T18:24:56.653Z,6.53
2022-10-17T18:27:24.435Z,6.60
2022-10-17T18:29:52.098Z,6.63
2022-10-17T18:32:19.977Z,6.87
2022-10-17T18:34:47.649Z,7.23
2022-10-17T18:37:16.693Z,7.93
2022-10-17T18:39:44.919Z,8.10
2022-10-17T18:42:13.944Z,7.00
2022-10-17T18:44:41.526Z,6.87
2022-10-17T18:47:09.290Z,8.33
2022-10-17T18:49:37.013Z,8.17
2022-10-17T18:52:05.119Z,7.50
2022-10-17T18:54:50.361Z,7.20
2022-10-17T18:57:20.406Z,6.70
2022-10-17T18:59:50.424Z,7.17
2022-10-17T19:02:40.557Z,6.77
2022-10-17T19:05:09.233Z,6.30
2022-10-17T20:38:22.110Z,4.33
2022-10-17T20:48:16.315Z,2.70
2022-10-17T20:55:00.800Z,4.07
2022-10-17T20:58:32.590Z,3.90
2022-10-17T21:01:58.587Z,3.70
2022-10-17T21:22:53.435Z,3.03
2022-10-17T21:25:45.486Z,2.00
2022-10-17T21:28:52.371Z,1.77
2022-10-17T21:31:40.202Z,1.60
2022-10-17T22:08:23.291Z,3.30
2022-10-17T22:17:41.145Z,3.00
2022-10-17T22:21:07.473Z,3.10
2022-10-17T22:34:04.456Z,2.60
2022-10-17T22:36:53.132Z,2.27
2022-10-17T22:39:34.560Z,2.40
2022-10-17T22:42:09.028Z,2.37
2022-10-17T23:07:25.981Z,2.80
2022-10-17T23:11:00.044Z,3.00
2022-10-17T23:14:16.632Z,3.00
2022-10-17T23:20:24.054Z,2.77
2022-10-17T23:23:05.574Z,2.40
2022-10-17T23:30:38.356Z,2.70
2022-10-17T23:40:56.854Z,2.47
2022-10-17T23:47:43.441Z,2.70
2022-10-17T23:50:58.119Z,3.10
2022-10-17T23:53:49.051Z,2.40
2022-10-17T23:56:51.874Z,2.40
2022-10-17T23:59:33.230Z,2.30
